createdAt,value
2017-10-13T09:51:39.000Z,25.7
2017-10-13T09:53:15.000Z,25.07
2017-10-13T09:54:03.000Z,24.22
2017-10-13T09:54:51.000Z,23.57
2017-10-13T09:55:39.000Z,23.31
2017-10-13T09:57:15.000Z,22.53
2017-10-13T09:58:03.000Z,22.76
2017-10-13T09:58:51.000Z,22.17
2017-10-13T10:00:27.000Z,21.44
2017-10-13T10:01:15.000Z,22.02
2017-10-13T10:02:03.000Z,23.75
2017-10-13T10:02:51.000Z,23.71
2017-10-13T10:03:39.000Z,23.01
2017-10-13T10:06:04.000Z,22.16
2017-10-13T10:09:16.000Z,22.26
2017-10-13T10:24:28.000Z,23.38
2017-10-13T10:49:18.000Z,24.57
2017-10-13T10:58:54.000Z,24.98
2017-10-13T11:02:54.000Z,25.08
2017-10-13T11:06:55.000Z,25.09
2017-10-13T11:22:07.000Z,25.5
2017-10-13T11:40:32.000Z,26.12
2017-10-13T11:41:20.000Z,27.29
2017-10-13T11:42:08.000Z,27.12
2017-10-13T11:42:56.000Z,26.68
2017-10-13T11:43:44.000Z,26.8
2017-10-13T11:44:32.000Z,26.97
2017-10-13T11:45:20.000Z,27.37
2017-10-13T11:46:08.000Z,27.64
2017-10-13T11:46:56.000Z,27.5
2017-10-13T11:47:45.000Z,26.56
2017-10-13T11:49:21.000Z,25.82
2017-10-13T11:50:09.000Z,26.19
2017-10-13T11:50:57.000Z,26.68
2017-10-13T11:51:45.000Z,27.41
2017-10-13T11:52:33.000Z,27.84
2017-10-13T11:53:21.000Z,28.36
2017-10-13T11:54:09.000Z,28.99
2017-10-13T11:54:57.000Z,29.23
2017-10-13T11:55:45.000Z,29.29
2017-10-13T11:56:33.000Z,29.22
2017-10-13T11:57:21.000Z,29.44
2017-10-13T11:58:09.000Z,29.92
2017-10-13T11:58:57.000Z,30.35
2017-10-13T11:59:45.000Z,30.96
2017-10-13T12:00:33.000Z,31.35
2017-10-13T12:01:21.000Z,32.06
2017-10-13T12:02:09.000Z,32.55
2017-10-13T12:02:57.000Z,32.94
2017-10-13T12:03:45.000Z,33.23
2017-10-13T12:04:33.000Z,33.34
2017-10-13T12:05:21.000Z,33.72
2017-10-13T12:06:09.000Z,34.06
2017-10-13T12:06:57.000Z,34.28
2017-10-13T12:07:46.000Z,34.46
2017-10-13T12:08:34.000Z,34.74
2017-10-13T12:09:22.000Z,34.74
2017-10-13T12:10:58.000Z,35.02
2017-10-13T12:11:46.000Z,35.25
2017-10-13T12:12:34.000Z,35.41
2017-10-13T12:13:22.000Z,35.65
2017-10-13T12:14:58.000Z,35.97
2017-10-13T12:15:46.000Z,36.15
2017-10-13T12:16:34.000Z,36.36
2017-10-13T12:17:22.000Z,36.53
2017-10-13T12:18:10.000Z,36.65
2017-10-13T12:18:58.000Z,36.59
2017-10-13T12:19:46.000Z,36.01
2017-10-13T12:22:58.000Z,33.55
2017-10-13T12:23:46.000Z,32.94
2017-10-13T12:24:34.000Z,32.1
2017-10-13T12:25:22.000Z,31.08
